SWA1742 KSBA-KOAK
Flight info
| Callsign | SWA1742 |
|---|---|
| Flight time | 0h 44m |
| Altitude | 27000 |
| Route | GAUCH3 GAUCH AVE RGOOD EMZOH4 |
| Aircraft | B738/M-SDE2E3FGHIRWXY/LB1 |
Departure
| Time | 2026-05-04 22:49 |
|---|---|
| Airport | Santa Barbara Municipal Airport (KSBA) |
Arrival
| Time | 2026-05-04 23:33 |
|---|---|
| Airport | San Francisco Bay Oakland International Airport (KOAK) |
| Time | Latitude | Longitude | Altitude | Speed | Heading |
|---|---|---|---|---|---|
| 2026-05-04 22:38 | 34.42488 | -119.83717 | 20 ft | 0 kts | 90° |
| 2026-05-04 22:44 | 34.42488 | -119.83735 | 20 ft | 2 kts | 87° |
| 2026-05-04 22:44 | 34.42486 | -119.83754 | 21 ft | 2 kts | 79° |
| 2026-05-04 22:44 | 34.42480 | -119.83772 | 18 ft | 2 kts | 20° |
| 2026-05-04 22:45 | 34.42470 | -119.83774 | 20 ft | 1 kts | 354° |
| 2026-05-04 22:45 | 34.42469 | -119.83774 | 19 ft | 0 kts | 354° |
| 2026-05-04 22:46 | 34.42474 | -119.83775 | 18 ft | 3 kts | 354° |
| 2026-05-04 22:46 | 34.42520 | -119.83788 | 18 ft | 11 kts | 346° |
| 2026-05-04 22:46 | 34.42607 | -119.83817 | 17 ft | 14 kts | 343° |
| 2026-05-04 22:47 | 34.42671 | -119.83774 | 17 ft | 13 kts | 82° |
| 2026-05-04 22:47 | 34.42675 | -119.83658 | 17 ft | 15 kts | 89° |
| 2026-05-04 22:47 | 34.42677 | -119.83544 | 17 ft | 10 kts | 89° |
| 2026-05-04 22:47 | 34.42693 | -119.83469 | 19 ft | 9 kts | 40° |
| 2026-05-04 22:48 | 34.42754 | -119.83471 | 17 ft | 9 kts | 342° |
| 2026-05-04 22:48 | 34.42790 | -119.83493 | 17 ft | 4 kts | 279° |
| 2026-05-04 22:48 | 34.42790 | -119.83507 | 17 ft | 0 kts | 268° |
| 2026-05-04 22:48 | 34.42786 | -119.83725 | 18 ft | 67 kts | 269° |
| 2026-05-04 22:49 | 34.42768 | -119.84604 | 16 ft | 142 kts | 270° |
| 2026-05-04 22:49 | 34.42742 | -119.85972 | 542 ft | 171 kts | 269° |
| 2026-05-04 22:49 | 34.42702 | -119.87437 | 1589 ft | 184 kts | 267° |
| 2026-05-04 22:49 | 34.42668 | -119.89058 | 2111 ft | 201 kts | 267° |
| 2026-05-04 22:50 | 34.42632 | -119.90839 | 2431 ft | 223 kts | 268° |
| 2026-05-04 22:50 | 34.42625 | -119.92773 | 3008 ft | 235 kts | 268° |
| 2026-05-04 22:50 | 34.42604 | -119.94829 | 3590 ft | 251 kts | 268° |
| 2026-05-04 22:50 | 34.42578 | -119.96968 | 4420 ft | 255 kts | 269° |
| 2026-05-04 22:51 | 34.42563 | -119.99127 | 5288 ft | 259 kts | 269° |
| 2026-05-04 22:51 | 34.42532 | -120.01322 | 6161 ft | 262 kts | 267° |
| 2026-05-04 22:51 | 34.42453 | -120.03527 | 6902 ft | 269 kts | 266° |
| 2026-05-04 22:51 | 34.42379 | -120.05808 | 7682 ft | 274 kts | 266° |
| 2026-05-04 22:52 | 34.42319 | -120.08128 | 8517 ft | 276 kts | 266° |
| 2026-05-04 22:52 | 34.42269 | -120.10470 | 9367 ft | 281 kts | 267° |
| 2026-05-04 22:52 | 34.42220 | -120.12846 | 10255 ft | 281 kts | 268° |
| 2026-05-04 22:52 | 34.42305 | -120.15277 | 10673 ft | 302 kts | 282° |
| 2026-05-04 22:53 | 34.43282 | -120.17628 | 10851 ft | 329 kts | 310° |
| 2026-05-04 22:53 | 34.45198 | -120.19318 | 11036 ft | 355 kts | 332° |
| 2026-05-04 22:53 | 34.47506 | -120.20624 | 11194 ft | 377 kts | 333° |
| 2026-05-04 22:53 | 34.49955 | -120.21957 | 11464 ft | 393 kts | 334° |
| 2026-05-04 22:54 | 34.52422 | -120.23344 | 11995 ft | 399 kts | 332° |
| 2026-05-04 22:54 | 34.54933 | -120.24794 | 12656 ft | 401 kts | 332° |
| 2026-05-04 22:54 | 34.57552 | -120.26007 | 13232 ft | 410 kts | 347° |
| 2026-05-04 22:54 | 34.60419 | -120.26077 | 13833 ft | 418 kts | 7° |
| 2026-05-04 22:55 | 34.63284 | -120.25371 | 14417 ft | 421 kts | 11° |
| 2026-05-04 22:55 | 34.66158 | -120.24574 | 14911 ft | 427 kts | 11° |
| 2026-05-04 22:55 | 34.69071 | -120.23753 | 15417 ft | 432 kts | 11° |
| 2026-05-04 22:55 | 34.72011 | -120.22930 | 15997 ft | 435 kts | 11° |
| 2026-05-04 22:56 | 34.74965 | -120.22115 | 16556 ft | 438 kts | 11° |
| 2026-05-04 22:56 | 34.77951 | -120.21303 | 17067 ft | 442 kts | 11° |
| 2026-05-04 22:56 | 34.80926 | -120.20502 | 17581 ft | 445 kts | 11° |
| 2026-05-04 22:56 | 34.83965 | -120.19689 | 18079 ft | 449 kts | 10° |
| 2026-05-04 22:57 | 34.87029 | -120.18870 | 18537 ft | 453 kts | 10° |
| 2026-05-04 22:57 | 34.90116 | -120.18045 | 19021 ft | 455 kts | 10° |
| 2026-05-04 22:57 | 34.93215 | -120.17214 | 19485 ft | 458 kts | 10° |
| 2026-05-04 22:57 | 34.96341 | -120.16372 | 19902 ft | 461 kts | 10° |
| 2026-05-04 22:58 | 34.99483 | -120.15524 | 20348 ft | 464 kts | 10° |
| 2026-05-04 22:58 | 35.02650 | -120.14682 | 20776 ft | 467 kts | 10° |
| 2026-05-04 22:58 | 35.05836 | -120.13835 | 21186 ft | 471 kts | 10° |
| 2026-05-04 22:58 | 35.09046 | -120.12973 | 21547 ft | 474 kts | 10° |
| 2026-05-04 22:59 | 35.12276 | -120.12107 | 21930 ft | 477 kts | 10° |
| 2026-05-04 22:59 | 35.15479 | -120.11248 | 22346 ft | 479 kts | 10° |
| 2026-05-04 22:59 | 35.18744 | -120.10369 | 22696 ft | 483 kts | 10° |
| 2026-05-04 22:59 | 35.22037 | -120.09479 | 23017 ft | 487 kts | 10° |
| 2026-05-04 23:00 | 35.25356 | -120.08581 | 23334 ft | 490 kts | 10° |
| 2026-05-04 23:00 | 35.28692 | -120.07677 | 23692 ft | 492 kts | 10° |
| 2026-05-04 23:00 | 35.32046 | -120.06770 | 23949 ft | 496 kts | 9° |
| 2026-05-04 23:00 | 35.35428 | -120.05855 | 24163 ft | 500 kts | 9° |
| 2026-05-04 23:01 | 35.38829 | -120.04935 | 24439 ft | 502 kts | 9° |
| 2026-05-04 23:01 | 35.42248 | -120.04008 | 24725 ft | 504 kts | 9° |
| 2026-05-04 23:01 | 35.45635 | -120.03089 | 24932 ft | 508 kts | 9° |
| 2026-05-04 23:01 | 35.49099 | -120.02150 | 25140 ft | 512 kts | 9° |
| 2026-05-04 23:02 | 35.52587 | -120.01201 | 25367 ft | 514 kts | 9° |
| 2026-05-04 23:02 | 35.56092 | -120.00247 | 25574 ft | 518 kts | 9° |
| 2026-05-04 23:02 | 35.59619 | -119.99287 | 25776 ft | 520 kts | 9° |
| 2026-05-04 23:02 | 35.63150 | -119.98321 | 26109 ft | 519 kts | 9° |
| 2026-05-04 23:03 | 35.66629 | -119.97125 | 26454 ft | 522 kts | 17° |
| 2026-05-04 23:03 | 35.69994 | -119.95422 | 26762 ft | 524 kts | 20° |
| 2026-05-04 23:03 | 35.73333 | -119.93591 | 27003 ft | 526 kts | 21° |
| 2026-05-04 23:03 | 35.76698 | -119.91767 | 27014 ft | 529 kts | 20° |
| 2026-05-04 23:04 | 35.80083 | -119.89998 | 27027 ft | 528 kts | 19° |
| 2026-05-04 23:04 | 35.83432 | -119.88334 | 27016 ft | 524 kts | 14° |
| 2026-05-04 23:04 | 35.86962 | -119.87527 | 27038 ft | 511 kts | 356° |
| 2026-05-04 23:04 | 35.90453 | -119.87932 | 27021 ft | 499 kts | 342° |
| 2026-05-04 23:05 | 35.93711 | -119.89229 | 27030 ft | 488 kts | 331° |
| 2026-05-04 23:05 | 35.96641 | -119.91243 | 27013 ft | 477 kts | 318° |
| 2026-05-04 23:05 | 35.99125 | -119.93895 | 27036 ft | 470 kts | 311° |
| 2026-05-04 23:05 | 36.01467 | -119.96705 | 27021 ft | 469 kts | 310° |
| 2026-05-04 23:06 | 36.03786 | -119.99544 | 27028 ft | 469 kts | 310° |
| 2026-05-04 23:06 | 36.06076 | -120.02350 | 27031 ft | 470 kts | 311° |
| 2026-05-04 23:06 | 36.08412 | -120.05188 | 27032 ft | 472 kts | 311° |
| 2026-05-04 23:06 | 36.10767 | -120.08024 | 27021 ft | 473 kts | 311° |
| 2026-05-04 23:07 | 36.13132 | -120.10855 | 27024 ft | 474 kts | 311° |
| 2026-05-04 23:07 | 36.15504 | -120.13685 | 27039 ft | 474 kts | 312° |
| 2026-05-04 23:07 | 36.17880 | -120.16517 | 27035 ft | 475 kts | 312° |
| 2026-05-04 23:07 | 36.20258 | -120.19353 | 27037 ft | 475 kts | 313° |
| 2026-05-04 23:08 | 36.22638 | -120.22196 | 27031 ft | 476 kts | 313° |
| 2026-05-04 23:08 | 36.24989 | -120.25006 | 27030 ft | 476 kts | 313° |
| 2026-05-04 23:08 | 36.27373 | -120.27859 | 27031 ft | 477 kts | 313° |
| 2026-05-04 23:08 | 36.29758 | -120.30716 | 27032 ft | 477 kts | 313° |
| 2026-05-04 23:09 | 36.32145 | -120.33579 | 27033 ft | 477 kts | 313° |
| 2026-05-04 23:09 | 36.34531 | -120.36444 | 27033 ft | 477 kts | 313° |
| 2026-05-04 23:09 | 36.36918 | -120.39313 | 27045 ft | 478 kts | 314° |
| 2026-05-04 23:09 | 36.39309 | -120.42191 | 27033 ft | 479 kts | 314° |
| 2026-05-04 23:10 | 36.41701 | -120.45070 | 27031 ft | 479 kts | 314° |
| 2026-05-04 23:10 | 36.44094 | -120.47953 | 27031 ft | 480 kts | 314° |
| 2026-05-04 23:10 | 36.46489 | -120.50841 | 27028 ft | 480 kts | 314° |
| 2026-05-04 23:10 | 36.48849 | -120.53691 | 27030 ft | 480 kts | 314° |
| 2026-05-04 23:11 | 36.51241 | -120.56581 | 27022 ft | 480 kts | 314° |
| 2026-05-04 23:11 | 36.53632 | -120.59472 | 26970 ft | 480 kts | 314° |
| 2026-05-04 23:11 | 36.56083 | -120.62337 | 26166 ft | 483 kts | 316° |
| 2026-05-04 23:11 | 36.58566 | -120.65077 | 25444 ft | 471 kts | 317° |
| 2026-05-04 23:12 | 36.61018 | -120.67729 | 24799 ft | 464 kts | 317° |
| 2026-05-04 23:12 | 36.63443 | -120.70357 | 24156 ft | 460 kts | 317° |
| 2026-05-04 23:12 | 36.65797 | -120.72936 | 23522 ft | 456 kts | 318° |
| 2026-05-04 23:12 | 36.68134 | -120.75520 | 23307 ft | 441 kts | 319° |
| 2026-05-04 23:13 | 36.70389 | -120.78026 | 23082 ft | 428 kts | 319° |
| 2026-05-04 23:13 | 36.72574 | -120.80459 | 22892 ft | 415 kts | 319° |
| 2026-05-04 23:13 | 36.74692 | -120.82818 | 22747 ft | 402 kts | 319° |
| 2026-05-04 23:13 | 36.76752 | -120.85112 | 22563 ft | 391 kts | 319° |
| 2026-05-04 23:14 | 36.78764 | -120.87350 | 22224 ft | 386 kts | 319° |
| 2026-05-04 23:14 | 36.80755 | -120.89555 | 21866 ft | 381 kts | 319° |
| 2026-05-04 23:14 | 36.82732 | -120.91743 | 21444 ft | 379 kts | 319° |
| 2026-05-04 23:14 | 36.84695 | -120.93919 | 21021 ft | 376 kts | 320° |
| 2026-05-04 23:15 | 36.86621 | -120.96056 | 20635 ft | 374 kts | 320° |
| 2026-05-04 23:15 | 36.88559 | -120.98206 | 20241 ft | 372 kts | 320° |
| 2026-05-04 23:15 | 36.90486 | -121.00345 | 19836 ft | 370 kts | 320° |
| 2026-05-04 23:15 | 36.92400 | -121.02474 | 19452 ft | 367 kts | 320° |
| 2026-05-04 23:16 | 36.94303 | -121.04591 | 19054 ft | 365 kts | 320° |
| 2026-05-04 23:16 | 36.96195 | -121.06698 | 18668 ft | 363 kts | 320° |
| 2026-05-04 23:16 | 36.98079 | -121.08798 | 18271 ft | 362 kts | 319° |
| 2026-05-04 23:16 | 36.99953 | -121.10888 | 17797 ft | 361 kts | 320° |
| 2026-05-04 23:17 | 37.01821 | -121.12975 | 17363 ft | 359 kts | 320° |
| 2026-05-04 23:17 | 37.03681 | -121.15051 | 16962 ft | 357 kts | 320° |
| 2026-05-04 23:17 | 37.05502 | -121.17085 | 16578 ft | 355 kts | 320° |
| 2026-05-04 23:17 | 37.07338 | -121.19138 | 16186 ft | 353 kts | 320° |
| 2026-05-04 23:18 | 37.09163 | -121.21179 | 15802 ft | 350 kts | 320° |
| 2026-05-04 23:18 | 37.10973 | -121.23207 | 15419 ft | 348 kts | 319° |
| 2026-05-04 23:18 | 37.12772 | -121.25229 | 15025 ft | 346 kts | 320° |
| 2026-05-04 23:18 | 37.14552 | -121.27251 | 14624 ft | 345 kts | 319° |
| 2026-05-04 23:19 | 37.16320 | -121.29293 | 14209 ft | 346 kts | 319° |
| 2026-05-04 23:19 | 37.18080 | -121.31342 | 13777 ft | 345 kts | 319° |
| 2026-05-04 23:19 | 37.19838 | -121.33394 | 13301 ft | 345 kts | 318° |
| 2026-05-04 23:19 | 37.21567 | -121.35412 | 12860 ft | 344 kts | 319° |
| 2026-05-04 23:20 | 37.23315 | -121.37451 | 12430 ft | 342 kts | 318° |
| 2026-05-04 23:20 | 37.25054 | -121.39479 | 12005 ft | 341 kts | 319° |
| 2026-05-04 23:20 | 37.26791 | -121.41502 | 11591 ft | 340 kts | 318° |
| 2026-05-04 23:20 | 37.28521 | -121.43516 | 11155 ft | 339 kts | 318° |
| 2026-05-04 23:21 | 37.30243 | -121.45527 | 10762 ft | 337 kts | 318° |
| 2026-05-04 23:21 | 37.31959 | -121.47533 | 10354 ft | 336 kts | 318° |
| 2026-05-04 23:21 | 37.33671 | -121.49533 | 9952 ft | 336 kts | 318° |
| 2026-05-04 23:21 | 37.35360 | -121.51508 | 9878 ft | 324 kts | 317° |
| 2026-05-04 23:22 | 37.36954 | -121.53372 | 9838 ft | 311 kts | 317° |
| 2026-05-04 23:22 | 37.38517 | -121.55188 | 9749 ft | 301 kts | 317° |
| 2026-05-04 23:22 | 37.40045 | -121.56929 | 9668 ft | 291 kts | 318° |
| 2026-05-04 23:22 | 37.41515 | -121.58603 | 9434 ft | 281 kts | 317° |
| 2026-05-04 23:23 | 37.42944 | -121.60233 | 9137 ft | 274 kts | 317° |
| 2026-05-04 23:23 | 37.44319 | -121.61867 | 8790 ft | 269 kts | 310° |
| 2026-05-04 23:23 | 37.45424 | -121.63721 | 8560 ft | 259 kts | 304° |
| 2026-05-04 23:23 | 37.46424 | -121.65551 | 8377 ft | 250 kts | 304° |
| 2026-05-04 23:24 | 37.47400 | -121.67313 | 8204 ft | 238 kts | 305° |
| 2026-05-04 23:24 | 37.48325 | -121.68971 | 8019 ft | 226 kts | 304° |
| 2026-05-04 23:24 | 37.49240 | -121.70595 | 7554 ft | 227 kts | 304° |
| 2026-05-04 23:24 | 37.50138 | -121.72179 | 7162 ft | 224 kts | 304° |
| 2026-05-04 23:25 | 37.51046 | -121.73775 | 6765 ft | 223 kts | 304° |
| 2026-05-04 23:25 | 37.51951 | -121.75366 | 6434 ft | 223 kts | 304° |
| 2026-05-04 23:25 | 37.52839 | -121.76932 | 6202 ft | 216 kts | 302° |
| 2026-05-04 23:25 | 37.53342 | -121.78656 | 6030 ft | 209 kts | 275° |
| 2026-05-04 23:26 | 37.53510 | -121.80475 | 5908 ft | 215 kts | 276° |
| 2026-05-04 23:26 | 37.53728 | -121.82380 | 5756 ft | 222 kts | 277° |
| 2026-05-04 23:26 | 37.53956 | -121.84307 | 5610 ft | 221 kts | 277° |
| 2026-05-04 23:26 | 37.54178 | -121.86204 | 5428 ft | 215 kts | 276° |
| 2026-05-04 23:27 | 37.54389 | -121.88009 | 5277 ft | 209 kts | 277° |
| 2026-05-04 23:27 | 37.54599 | -121.89810 | 5139 ft | 208 kts | 277° |
| 2026-05-04 23:27 | 37.54809 | -121.91609 | 5008 ft | 207 kts | 277° |
| 2026-05-04 23:27 | 37.55019 | -121.93397 | 4876 ft | 206 kts | 277° |
| 2026-05-04 23:28 | 37.55226 | -121.95177 | 4730 ft | 205 kts | 277° |
| 2026-05-04 23:28 | 37.55432 | -121.96951 | 4624 ft | 205 kts | 277° |
| 2026-05-04 23:28 | 37.55638 | -121.98728 | 4504 ft | 205 kts | 277° |
| 2026-05-04 23:28 | 37.56042 | -122.00427 | 4256 ft | 207 kts | 304° |
| 2026-05-04 23:29 | 37.57019 | -122.01757 | 4022 ft | 207 kts | 309° |
| 2026-05-04 23:29 | 37.57946 | -122.03160 | 3683 ft | 207 kts | 309° |
| 2026-05-04 23:29 | 37.58847 | -122.04499 | 3419 ft | 199 kts | 308° |
| 2026-05-04 23:29 | 37.59734 | -122.05823 | 3140 ft | 197 kts | 308° |
| 2026-05-04 23:30 | 37.60623 | -122.07114 | 2944 ft | 192 kts | 309° |
| 2026-05-04 23:30 | 37.61493 | -122.08373 | 2683 ft | 188 kts | 309° |
| 2026-05-04 23:30 | 37.62321 | -122.09616 | 2430 ft | 182 kts | 308° |
| 2026-05-04 23:30 | 37.63130 | -122.10836 | 2215 ft | 183 kts | 306° |
| 2026-05-04 23:31 | 37.63938 | -122.12057 | 1951 ft | 179 kts | 307° |
| 2026-05-04 23:31 | 37.64707 | -122.13216 | 1727 ft | 165 kts | 307° |
| 2026-05-04 23:31 | 37.65400 | -122.14261 | 1506 ft | 154 kts | 306° |
| 2026-05-04 23:31 | 37.66080 | -122.15288 | 1293 ft | 153 kts | 306° |
| 2026-05-04 23:32 | 37.66745 | -122.16308 | 1099 ft | 146 kts | 307° |
| 2026-05-04 23:32 | 37.67394 | -122.17263 | 869 ft | 143 kts | 306° |
| 2026-05-04 23:32 | 37.68035 | -122.18240 | 678 ft | 146 kts | 306° |
| 2026-05-04 23:32 | 37.68718 | -122.19257 | 486 ft | 153 kts | 307° |
| 2026-05-04 23:33 | 37.69398 | -122.20283 | 294 ft | 150 kts | 304° |
| 2026-05-04 23:33 | 37.70052 | -122.21281 | 90 ft | 145 kts | 306° |
| 2026-05-04 23:33 | 37.70675 | -122.22217 | 8 ft | 128 kts | 309° |
| 2026-05-04 23:33 | 37.71078 | -122.22822 | 8 ft | 43 kts | 309° |
| 2026-05-04 23:34 | 37.71234 | -122.23026 | 9 ft | 25 kts | 324° |
| 2026-05-04 23:34 | 37.71356 | -122.23113 | 8 ft | 15 kts | 339° |
| 2026-05-04 23:34 | 37.71457 | -122.23143 | 8 ft | 15 kts | 7° |
| 2026-05-04 23:34 | 37.71490 | -122.23065 | 8 ft | 11 kts | 115° |
| 2026-05-04 23:35 | 37.71442 | -122.22988 | 9 ft | 11 kts | 131° |
| 2026-05-04 23:35 | 37.71387 | -122.22908 | 8 ft | 14 kts | 129° |
| 2026-05-04 23:35 | 37.71310 | -122.22789 | 8 ft | 21 kts | 130° |
| 2026-05-04 23:35 | 37.71213 | -122.22645 | 9 ft | 17 kts | 128° |
| 2026-05-04 23:36 | 37.71215 | -122.22517 | 8 ft | 16 kts | 51° |
| 2026-05-04 23:36 | 37.71287 | -122.22415 | 10 ft | 15 kts | 48° |
| 2026-05-04 23:36 | 37.71343 | -122.22297 | 8 ft | 16 kts | 89° |
| 2026-05-04 23:36 | 37.71285 | -122.22180 | 8 ft | 16 kts | 130° |
| 2026-05-04 23:37 | 37.71211 | -122.22070 | 8 ft | 17 kts | 129° |
| 2026-05-04 23:37 | 37.71131 | -122.21949 | 9 ft | 19 kts | 130° |
| 2026-05-04 23:37 | 37.71034 | -122.21822 | 8 ft | 21 kts | 141° |
| 2026-05-04 23:37 | 37.70940 | -122.21685 | 9 ft | 20 kts | 127° |
| 2026-05-04 23:38 | 37.70874 | -122.21554 | 8 ft | 16 kts | 98° |
| 2026-05-04 23:38 | 37.70931 | -122.21452 | 8 ft | 15 kts | 36° |
| 2026-05-04 23:38 | 37.71013 | -122.21374 | 8 ft | 14 kts | 41° |
| 2026-05-04 23:38 | 37.71041 | -122.21274 | 8 ft | 10 kts | 78° |
| 2026-05-04 23:39 | 37.71050 | -122.21207 | 8 ft | 4 kts | 82° |
| 2026-05-04 23:39 | 37.71052 | -122.21197 | 8 ft | 0 kts | 81° |